Pine Springs, Arizona
Current Conditions -  °F | °C
As of 10:53 AM on Saturday 25 Oct 2014 (Local Time) from KRQE Reporting Station
Clear Clear  
Wind Chill: 65°   Ceiling: Unl
Heat Index: 65°   Visibility: 10mi
Dew Point: 33°   Wind: 0mph
Humidity: 31%   Direction: NA
Pressure: 30.39"   Gusts: NA
Location:  35.2918°N, 109.157°W
Report Text: KRQE 251653Z AUTO 00000KT 10SM CLR 18/01 A3039 RMK AO2 SLP208 T01830006 TSNO
Loading
Personal Weather Stations






























Interactive Weather Map
Tropical Storm Tracking
New forecast layout! Learn more

10-Day Weather Forecast

Advertisements
Track Severe Weather on mobile